• Join FlightAware (Why Join?)
  • Login
  • US Flag 
09:56PM EDT


 

Airport Tracker/Info


-or-


 

Live Flight TrackerFlight Track Log ✈ FLG3735 ✈ 12-Jun-2013 ✈ KDTW - KALB

Flight Track Log - Related Links

Times and Time Zones

All times are in EDT time to prevent confusion due to time zone crossing. See the FLG3735 flight status page for this flight to view local times or setup timezone preferences in your user account.

Time Position Orientation Groundspeed Altitude Reporting Facility
EDT Latitude Longitude Course Direction KTS MPH feet Rate Location/Type
11:02PM 42.2017 -83.3583 90° East 159 183 1,200  Level Cleveland Center
11:02PM 42.1722 -83.3625 186° South 171 197 2,400 1,860 Climbing Cleveland Center
11:03PM 42.1142 -83.3544 174° South 208 239 4,400 1,500 Climbing Cleveland Center
11:04PM 42.1222 -83.2736 82° East 298 343 5,500 1,740 Climbing Cleveland Center
11:05PM 42.3188 -82.7288 82° East  Level FlightAware Approximate
11:06PM 42.3366 -82.5702 71° East  Level FlightAware Approximate
11:06PM 42.1744 -83.1750 54° Northeast 293 337 8,100  Level Cleveland Center
11:06PM 42.2203 -83.0842 56° Northeast 309 356 9,900 1,500 Climbing Cleveland Center
11:07PM 42.3667 -82.4193 90° East  Level FlightAware Approximate
11:07PM 42.2508 -83.0181 58° Northeast 422 486 10,400  Level Cleveland Center
11:08PM 42.2783 -82.9097 71° East 366 421 11,900 1,320 Climbing Cleveland Center
11:09PM 42.3039 -82.7758 75° East 349 402 13,100 1,200 Climbing Cleveland Center
11:10PM 42.3314 -82.6308 76° East 374 430 14,400 1,140 Climbing Cleveland Center
11:11PM 42.3611 -82.4828 75° East 394 453 15,400 960 Climbing Cleveland Center
11:12PM 42.3636 -82.3225 89° East 406 467 16,400 1,080 Climbing Cleveland Center
11:13PM 42.3556 -82.1622 94° East 412 474 17,600 1,500 Climbing Cleveland Center
11:14PM 42.3492 -82.0047 93° East 427 491 19,400 1,500 Climbing Cleveland Center
11:15PM 42.3428 -81.8558 93° East 416 479 20,700 1,140 Climbing Cleveland Center
11:16PM 42.3339 -81.6869 94° East 405 466 21,700 900 Climbing Cleveland Center
11:17PM 42.3269 -81.5325 93° East 405 466 22,500 660 Climbing Cleveland Center
11:18PM 42.3200 -81.3722 93° East 412 474 23,100 600 Climbing Cleveland Center
11:19PM 42.3125 -81.2122 94° East 425 489 23,800 600 Climbing Cleveland Center
11:20PM 42.3050 -81.0464 93° East 436 502 24,400 600 Climbing Cleveland Center
11:21PM 42.2953 -80.8750 94° East 447 514 25,000 600 Climbing Cleveland Center
11:22PM 42.2872 -80.7067 94° East 452 520 25,600 540 Climbing Cleveland Center
11:23PM 42.2914 -80.5522 88° East 452 520 26,100 540 Climbing Cleveland Center
11:24PM 42.3100 -80.3839 81° East 450 518 26,700 540 Climbing Cleveland Center
11:25PM 42.3283 -80.2153 82° East 450 518 27,200 480 Climbing Cleveland Center
11:26PM 42.3422 -80.0411 84° East 461 531 27,700 480 Climbing Cleveland Center
11:27PM 42.3600 -79.8639 82° East 466 536 28,200 480 Climbing Cleveland Center
11:28PM 42.3733 -79.6922 84° East 466 536 28,700 540 Climbing Cleveland Center
11:29PM 42.3886 -79.5178 83° East 461 531 29,300 480 Climbing Cleveland Center
11:30PM 42.4056 -79.3431 82° East 466 536 29,700 480 Climbing Cleveland Center
11:31PM 42.4203 -79.1683 83° East 466 536 30,300 540 Climbing Cleveland Center
11:32PM 42.4347 -78.9908 84° East 466 536 30,800 300 Climbing Cleveland Center
11:33PM 42.4506 -78.8047 83° East 461 531 31,000 60 Climbing Cleveland Center
11:34PM 42.4664 -78.6214 83° East 466 536 31,000  Level Cleveland Center
11:35PM 42.4819 -78.4406 83° East 479 551 31,000  Level Cleveland Center
11:36PM 42.4953 -78.2572 84° East 484 557 31,000  Level Cleveland Center
11:37PM 42.5081 -78.0819 84° East 491 565 31,000 -240 Level Cleveland Center
11:38PM 42.5208 -77.8983 85° East 497 572 30,600 -780 Descending Cleveland Center
11:39PM 42.5350 -77.7117 84° East 497 572 29,500 -660 Descending Cleveland Center
11:41PM 42.5561 -77.4133 84° East 478 550 29,000 -240 Descending Boston Center
11:42PM 42.5675 -77.2447 85° East 483 556 29,000  Level Boston Center
11:43PM 42.5794 -77.0622 85° East 488 562 29,000  Level Boston Center
11:44PM 42.5931 -76.8772 84° East 488 562 29,000  Level Boston Center
11:45PM 42.6044 -76.6889 85° East 493 567 29,000  Level Boston Center
11:46PM 42.6156 -76.5006 85° East 493 567 29,000  Level Boston Center
11:47PM 42.6283 -76.3122 85° East 493 567 29,000  Level Boston Center
11:48PM 42.6386 -76.1236 86° East 493 567 29,000 -300 Level Boston Center
11:49PM 42.6467 -75.9350 87° East 498 573 28,500 -1,440 Descending Boston Center
11:50PM 42.6586 -75.7519 85° East 491 565 26,200 -2,160 Descending Boston Center
11:51PM 42.6678 -75.5717 86° East 486 559 24,200 -2,040 Descending Boston Center
11:52PM 42.6792 -75.3858 85° East 486 559 22,200 -2,040 Descending Boston Center
11:53PM 42.6878 -75.2028 86° East 486 559 20,200 -2,100 Descending Boston Center
11:54PM 42.6961 -75.0250 86° East 474 545 18,100 -2,100 Descending Boston Center
11:55PM 42.7042 -74.8558 86° East 461 531 16,100 -2,280 Descending Boston Center
11:55PM 42.7056 -74.7767 89° East 431 496 15,000 -2,220 Descending Boston Center
11:56PM 42.7114 -74.6950 84° East 435 501 13,900 -2,160 Descending Boston Center
11:56PM 42.7147 -74.6303 86° East 410 472 13,100 -2,340 Descending Boston Center
11:57PM 42.7189 -74.5314 87° East 400 460 11,600 -1,980 Descending Boston Center
11:57PM 42.7194 -74.4917 89° East 364 419 11,100 -720 Descending Boston Center
11:58PM 42.7019 -74.4178 108° East 353 406 10,900 -600 Descending Boston Center
11:58PM 42.6925 -74.3694 105° East 323 372 10,500 -1,440 Descending Boston Center
11:59PM 42.6731 -74.2897 108° East 320 368 9,500 -1,440 Descending Boston Center
11:59PM 42.6672 -74.2614 106° East 294 338 9,100 -1,440 Descending Boston Center
12:00AM 42.6514 -74.1958 108° East 300 345 8,100 -1,560 Descending Boston Center
12:01AM 42.6261 -74.0908 108° East 281 323 6,500 -1,800 Descending Boston Center
12:02AM 42.6294 -73.9894 87° East 267 307 4,500 -1,860 Descending Boston Center
12:02AM 42.6256 -73.9667 103° East 266 306 4,200 -1,200 Descending Boston Center
12:03AM 42.6286 -73.8961 87° East 257 296 3,300 -1,320 Descending Boston Center
12:03AM 42.6289 -73.8681 89° East 240 276 2,900 -1,140 Descending Boston Center
12:04AM 42.6275 -73.8256 93° East 244 281 2,200 -1,140 Descending Boston Center
12:04AM 42.6403 -73.7978 58° Northeast 195 224 1,800 -720 Descending Boston Center
12:05AM 42.6861 -73.8072 351° North 154 177 1,300 -600 Descending Boston Center
12:06AM 42.7256 -73.8053 North 141 162 600 -720 Descending Boston Center